Aasiaat

KL  EN  DA
ASIAQ
Weather Now GREENLAND SURVEY
Updated [WGT/WGST] Temperature [°C] Wind [m/s] Air pressure [hPa] Relative humidity [%] Precipitation [mm]
Present Wind chill Speed Max
30.11 16:00-4,9-9,83,4 ⇙5,11000720,0
30.11 15:00-4,5-11,56,6 ⇙8,81000760,0
30.11 14:00-4,5-8,62,8 ⇓4,61000830,3
30.11 13:00-4,10,00,1 ⇓1,01000680,0
30.11 12:00-4,2-9,54,2 ⇙9,31001700,0
30.11 11:00-4,4-8,22,5 ⇐3,11002760,0
30.11 10:00-3,9-7,22,1 ⇖3,11003760,0
30.11 09:00-4,1-7,72,3 ⇑3,11003740,0
30.11 08:00-5,1-9,83,1 ⇑4,11004730,0
30.11 07:00-4,1-10,86,3 ⇗9,31005680,0
30.11 06:00-3,6-10,46,8 ⇒8,21005690,0
30.11 05:00-3,7-9,04,3 ⇒6,71005850,2
30.11 04:00-3,5-8,84,3 ⇒5,11006810,0
30.11 03:00-3,7-9,65,0 ⇗6,71006800,0
30.11 02:00-3,4-9,04,8 ⇗7,71006880,0
30.11 01:00-3,9-10,35,9 ⇑8,21005940,0
30.11 00:00-3,1-11,09,5 ⇑12,91005690,0
29.11 23:00-3,0-10,79,3 ⇑12,91005670,0
29.11 22:00-3,0-11,210,5 ⇑13,91005670,0
29.11 21:00-2,4-10,911,8 ⇑16,51004690,0
29.11 20:00-2,7-11,211,9 ⇑16,01003770,0
29.11 19:00-2,4-11,313,3 ⇑19,61002800,0
29.11 18:00-2,8-12,114,4 ⇑20,11002900,0
29.11 17:00-2,1-10,411,8 ⇑17,01001790,0
29.11 16:00-2,4-11,012,7 ⇑19,01000780,0
Position: (68.7166666666,-52.78333333)

[Back]